sensor_id;sensor_type;location;lat;lon;timestamp;temperature;humidity
19359;DHT22;9815;52.334;20.890;2023-01-04T00:00:08;4.10;99.90
19359;DHT22;9815;52.334;20.890;2023-01-04T00:02:36;4.10;99.90
19359;DHT22;9815;52.334;20.890;2023-01-04T00:05:05;4.00;99.90
19359;DHT22;9815;52.334;20.890;2023-01-04T00:07:34;4.00;99.90
19359;DHT22;9815;52.334;20.890;2023-01-04T00:10:03;4.00;99.90
19359;DHT22;9815;52.334;20.890;2023-01-04T00:12:31;3.90;99.90
19359;DHT22;9815;52.334;20.890;2023-01-04T00:14:58;3.90;99.90
19359;DHT22;9815;52.334;20.890;2023-01-04T00:17:26;3.90;99.90
19359;DHT22;9815;52.334;20.890;2023-01-04T00:19:54;3.80;99.90
19359;DHT22;9815;52.334;20.890;2023-01-04T00:22:22;3.80;99.90
19359;DHT22;9815;52.334;20.890;2023-01-04T00:24:52;3.70;99.90
19359;DHT22;9815;52.334;20.890;2023-01-04T00:27:19;3.70;99.90
19359;DHT22;9815;52.334;20.890;2023-01-04T00:29:47;3.60;99.90
19359;DHT22;9815;52.334;20.890;2023-01-04T00:32:15;3.50;99.90
19359;DHT22;9815;52.334;20.890;2023-01-04T00:34:45;3.40;99.90
19359;DHT22;9815;52.334;20.890;2023-01-04T00:37:13;3.30;99.90
19359;DHT22;9815;52.334;20.890;2023-01-04T00:39:41;3.30;99.90
19359;DHT22;9815;52.334;20.890;2023-01-04T00:42:10;3.20;99.90
19359;DHT22;9815;52.334;20.890;2023-01-04T00:44:38;3.10;99.90
19359;DHT22;9815;52.334;20.890;2023-01-04T00:47:06;3.10;99.90
19359;DHT22;9815;52.334;20.890;2023-01-04T00:49:34;3.00;99.90
19359;DHT22;9815;52.334;20.890;2023-01-04T00:52:02;2.90;99.90
19359;DHT22;9815;52.334;20.890;2023-01-04T00:54:30;2.90;99.90
19359;DHT22;9815;52.334;20.890;2023-01-04T00:56:58;2.90;99.90
19359;DHT22;9815;52.334;20.890;2023-01-04T00:59:28;2.80;99.90
19359;DHT22;9815;52.334;20.890;2023-01-04T01:01:56;2.80;99.90
19359;DHT22;9815;52.334;20.890;2023-01-04T01:04:24;2.80;99.90
19359;DHT22;9815;52.334;20.890;2023-01-04T01:06:52;2.80;99.90
19359;DHT22;9815;52.334;20.890;2023-01-04T01:09:21;2.70;99.90
19359;DHT22;9815;52.334;20.890;2023-01-04T01:11:49;2.70;99.90
19359;DHT22;9815;52.334;20.890;2023-01-04T01:14:19;2.70;99.90
19359;DHT22;9815;52.334;20.890;2023-01-04T01:16:49;2.70;99.90
19359;DHT22;9815;52.334;20.890;2023-01-04T01:19:22;2.60;99.90
19359;DHT22;9815;52.334;20.890;2023-01-04T01:21:50;2.60;99.90
19359;DHT22;9815;52.334;20.890;2023-01-04T01:24:18;2.60;99.90
19359;DHT22;9815;52.334;20.890;2023-01-04T01:26:47;2.60;99.90
19359;DHT22;9815;52.334;20.890;2023-01-04T01:29:15;2.60;99.90
19359;DHT22;9815;52.334;20.890;2023-01-04T01:31:43;2.50;99.90
19359;DHT22;9815;52.334;20.890;2023-01-04T01:34:12;2.50;99.90
19359;DHT22;9815;52.334;20.890;2023-01-04T01:36:40;2.50;99.90
19359;DHT22;9815;52.334;20.890;2023-01-04T01:39:08;2.40;99.90
19359;DHT22;9815;52.334;20.890;2023-01-04T01:41:37;2.40;99.90
19359;DHT22;9815;52.334;20.890;2023-01-04T01:46:51;2.30;99.90
19359;DHT22;9815;52.334;20.890;2023-01-04T01:49:24;2.20;99.90
19359;DHT22;9815;52.334;20.890;2023-01-04T01:51:55;2.10;99.90
19359;DHT22;9815;52.334;20.890;2023-01-04T01:54:27;2.10;99.90
19359;DHT22;9815;52.334;20.890;2023-01-04T01:56:59;2.00;99.90
19359;DHT22;9815;52.334;20.890;2023-01-04T01:59:29;1.90;99.90
19359;DHT22;9815;52.334;20.890;2023-01-04T02:01:59;1.80;99.90
19359;DHT22;9815;52.334;20.890;2023-01-04T02:04:28;1.70;99.90
19359;DHT22;9815;52.334;20.890;2023-01-04T02:06:58;1.70;99.90
19359;DHT22;9815;52.334;20.890;2023-01-04T02:09:26;1.60;99.90
19359;DHT22;9815;52.334;20.890;2023-01-04T02:11:56;1.50;99.90
19359;DHT22;9815;52.334;20.890;2023-01-04T02:14:24;1.50;99.90
19359;DHT22;9815;52.334;20.890;2023-01-04T02:17:02;1.40;99.90
19359;DHT22;9815;52.334;20.890;2023-01-04T02:20:02;1.40;99.90
19359;DHT22;9815;52.334;20.890;2023-01-04T02:32:27;1.20;99.90
19359;DHT22;9815;52.334;20.890;2023-01-04T02:35:06;1.20;99.90
19359;DHT22;9815;52.334;20.890;2023-01-04T02:37:45;1.10;99.90
19359;DHT22;9815;52.334;20.890;2023-01-04T02:40:20;1.10;99.90
19359;DHT22;9815;52.334;20.890;2023-01-04T02:42:54;1.00;99.90
19359;DHT22;9815;52.334;20.890;2023-01-04T02:45:49;1.00;99.90
19359;DHT22;9815;52.334;20.890;2023-01-04T02:48:20;0.90;99.90
19359;DHT22;9815;52.334;20.890;2023-01-04T02:51:25;0.90;99.90
19359;DHT22;9815;52.334;20.890;2023-01-04T02:53:54;0.90;99.90
19359;DHT22;9815;52.334;20.890;2023-01-04T02:56:29;0.80;99.90
19359;DHT22;9815;52.334;20.890;2023-01-04T02:59:17;0.80;99.90
19359;DHT22;9815;52.334;20.890;2023-01-04T03:01:55;0.70;99.90
19359;DHT22;9815;52.334;20.890;2023-01-04T03:04:53;0.70;99.90
19359;DHT22;9815;52.334;20.890;2023-01-04T03:07:49;0.70;99.90
19359;DHT22;9815;52.334;20.890;2023-01-04T03:10:26;0.70;99.90
19359;DHT22;9815;52.334;20.890;2023-01-04T03:13:04;0.60;99.90
19359;DHT22;9815;52.334;20.890;2023-01-04T03:15:33;0.60;99.90
19359;DHT22;9815;52.334;20.890;2023-01-04T03:18:09;0.50;99.90
19359;DHT22;9815;52.334;20.890;2023-01-04T03:20:41;0.50;99.90
19359;DHT22;9815;52.334;20.890;2023-01-04T03:23:13;0.40;99.90
19359;DHT22;9815;52.334;20.890;2023-01-04T03:26:02;0.40;99.90
19359;DHT22;9815;52.334;20.890;2023-01-04T03:28:49;0.40;99.90
19359;DHT22;9815;52.334;20.890;2023-01-04T03:31:40;0.40;99.90
19359;DHT22;9815;52.334;20.890;2023-01-04T03:34:41;0.30;99.90
19359;DHT22;9815;52.334;20.890;2023-01-04T03:37:33;0.30;99.90
19359;DHT22;9815;52.334;20.890;2023-01-04T03:40:17;0.30;99.90
19359;DHT22;9815;52.334;20.890;2023-01-04T03:43:07;0.20;99.90
19359;DHT22;9815;52.334;20.890;2023-01-04T03:46:03;0.20;99.90
19359;DHT22;9815;52.334;20.890;2023-01-04T03:48:53;0.20;99.90
19359;DHT22;9815;52.334;20.890;2023-01-04T03:51:27;0.10;99.90
19359;DHT22;9815;52.334;20.890;2023-01-04T03:53:59;0.10;99.90
19359;DHT22;9815;52.334;20.890;2023-01-04T03:56:31;0.10;99.90
19359;DHT22;9815;52.334;20.890;2023-01-04T03:59:00;0.00;99.90
19359;DHT22;9815;52.334;20.890;2023-01-04T04:01:28;0.00;99.90
19359;DHT22;9815;52.334;20.890;2023-01-04T04:03:57;0.00;99.90
19359;DHT22;9815;52.334;20.890;2023-01-04T04:06:42;-0.10;99.90
19359;DHT22;9815;52.334;20.890;2023-01-04T04:09:29;-0.10;99.90
19359;DHT22;9815;52.334;20.890;2023-01-04T04:11:58;-0.10;99.90
19359;DHT22;9815;52.334;20.890;2023-01-04T04:14:26;-0.10;99.90
19359;DHT22;9815;52.334;20.890;2023-01-04T04:16:54;-0.10;99.90
19359;DHT22;9815;52.334;20.890;2023-01-04T04:19:22;-0.20;99.90
19359;DHT22;9815;52.334;20.890;2023-01-04T04:21:50;-0.20;99.90
19359;DHT22;9815;52.334;20.890;2023-01-04T04:24:20;-0.20;99.90
19359;DHT22;9815;52.334;20.890;2023-01-04T04:26:50;-0.20;99.90
19359;DHT22;9815;52.334;20.890;2023-01-04T04:29:20;-0.20;99.90
19359;DHT22;9815;52.334;20.890;2023-01-04T04:31:48;-0.30;99.90
19359;DHT22;9815;52.334;20.890;2023-01-04T04:34:16;-0.20;99.90
19359;DHT22;9815;52.334;20.890;2023-01-04T04:36:44;-0.30;99.90
19359;DHT22;9815;52.334;20.890;2023-01-04T04:39:12;-0.30;99.90
19359;DHT22;9815;52.334;20.890;2023-01-04T04:41:40;-0.30;99.90
19359;DHT22;9815;52.334;20.890;2023-01-04T04:44:10;-0.30;99.90
19359;DHT22;9815;52.334;20.890;2023-01-04T04:46:38;-0.30;99.90
19359;DHT22;9815;52.334;20.890;2023-01-04T04:49:07;-0.30;99.90
19359;DHT22;9815;52.334;20.890;2023-01-04T04:51:36;-0.30;99.90
19359;DHT22;9815;52.334;20.890;2023-01-04T04:54:05;-0.30;99.90
19359;DHT22;9815;52.334;20.890;2023-01-04T04:56:34;-0.30;99.90
19359;DHT22;9815;52.334;20.890;2023-01-04T04:59:02;-0.40;99.90
19359;DHT22;9815;52.334;20.890;2023-01-04T05:01:32;-0.40;99.90
19359;DHT22;9815;52.334;20.890;2023-01-04T05:04:00;-0.40;99.90
19359;DHT22;9815;52.334;20.890;2023-01-04T05:06:28;-0.50;99.90
19359;DHT22;9815;52.334;20.890;2023-01-04T05:08:56;-0.50;99.90
19359;DHT22;9815;52.334;20.890;2023-01-04T05:11:25;-0.50;99.90
19359;DHT22;9815;52.334;20.890;2023-01-04T05:14:07;-0.50;99.90
19359;DHT22;9815;52.334;20.890;2023-01-04T05:16:36;-0.60;99.90
19359;DHT22;9815;52.334;20.890;2023-01-04T05:19:04;-0.60;99.90
19359;DHT22;9815;52.334;20.890;2023-01-04T05:21:32;-0.60;99.90
19359;DHT22;9815;52.334;20.890;2023-01-04T05:24:00;-0.60;99.90
19359;DHT22;9815;52.334;20.890;2023-01-04T05:26:28;-0.60;99.90
19359;DHT22;9815;52.334;20.890;2023-01-04T05:28:56;-0.60;99.90
19359;DHT22;9815;52.334;20.890;2023-01-04T05:31:24;-0.60;99.90
19359;DHT22;9815;52.334;20.890;2023-01-04T05:33:53;-0.60;99.90
19359;DHT22;9815;52.334;20.890;2023-01-04T05:36:21;-0.60;99.90
19359;DHT22;9815;52.334;20.890;2023-01-04T05:38:49;-0.60;99.90
19359;DHT22;9815;52.334;20.890;2023-01-04T05:41:17;-0.70;99.90
19359;DHT22;9815;52.334;20.890;2023-01-04T05:44:02;-0.70;99.90
19359;DHT22;9815;52.334;20.890;2023-01-04T05:46:30;-0.80;99.90
19359;DHT22;9815;52.334;20.890;2023-01-04T05:49:00;-0.70;99.90
19359;DHT22;9815;52.334;20.890;2023-01-04T05:51:28;-0.80;99.90
19359;DHT22;9815;52.334;20.890;2023-01-04T05:53:56;-0.80;99.90
19359;DHT22;9815;52.334;20.890;2023-01-04T05:56:23;-0.80;99.90
19359;DHT22;9815;52.334;20.890;2023-01-04T05:58:51;-0.70;99.90
19359;DHT22;9815;52.334;20.890;2023-01-04T06:01:19;-0.80;99.90
19359;DHT22;9815;52.334;20.890;2023-01-04T06:03:47;-0.80;99.90
19359;DHT22;9815;52.334;20.890;2023-01-04T06:06:17;-0.80;99.90
19359;DHT22;9815;52.334;20.890;2023-01-04T06:08:45;-0.80;99.90
19359;DHT22;9815;52.334;20.890;2023-01-04T06:11:13;-0.70;99.90
19359;DHT22;9815;52.334;20.890;2023-01-04T06:13:41;-0.70;99.90
19359;DHT22;9815;52.334;20.890;2023-01-04T06:16:09;-0.80;99.90
19359;DHT22;9815;52.334;20.890;2023-01-04T06:18:37;-0.80;99.90
19359;DHT22;9815;52.334;20.890;2023-01-04T06:21:05;-0.70;99.90
19359;DHT22;9815;52.334;20.890;2023-01-04T06:23:34;-0.70;99.90
19359;DHT22;9815;52.334;20.890;2023-01-04T06:26:02;-0.70;99.90
19359;DHT22;9815;52.334;20.890;2023-01-04T06:28:30;-0.70;99.90
19359;DHT22;9815;52.334;20.890;2023-01-04T06:31:07;-0.80;99.90
19359;DHT22;9815;52.334;20.890;2023-01-04T06:33:35;-0.80;99.90
19359;DHT22;9815;52.334;20.890;2023-01-04T06:36:04;-0.80;99.90
19359;DHT22;9815;52.334;20.890;2023-01-04T06:38:46;-0.80;99.90
19359;DHT22;9815;52.334;20.890;2023-01-04T06:41:14;-0.80;99.90
19359;DHT22;9815;52.334;20.890;2023-01-04T06:43:43;-0.80;99.90
19359;DHT22;9815;52.334;20.890;2023-01-04T06:46:11;-0.80;99.90
19359;DHT22;9815;52.334;20.890;2023-01-04T06:48:39;-0.70;99.90
19359;DHT22;9815;52.334;20.890;2023-01-04T06:51:07;-0.70;99.90
19359;DHT22;9815;52.334;20.890;2023-01-04T06:53:35;-0.60;99.90
19359;DHT22;9815;52.334;20.890;2023-01-04T06:56:05;-0.60;99.90
19359;DHT22;9815;52.334;20.890;2023-01-04T06:58:34;-0.60;99.90
19359;DHT22;9815;52.334;20.890;2023-01-04T07:01:04;-0.50;99.90
19359;DHT22;9815;52.334;20.890;2023-01-04T07:03:32;-0.50;99.90
19359;DHT22;9815;52.334;20.890;2023-01-04T07:06:03;-0.40;99.90
19359;DHT22;9815;52.334;20.890;2023-01-04T07:08:33;-0.40;99.90
19359;DHT22;9815;52.334;20.890;2023-01-04T07:11:01;-0.40;99.90
19359;DHT22;9815;52.334;20.890;2023-01-04T07:13:31;-0.40;99.90
19359;DHT22;9815;52.334;20.890;2023-01-04T07:15:59;-0.30;99.90
19359;DHT22;9815;52.334;20.890;2023-01-04T07:18:27;-0.30;99.90
19359;DHT22;9815;52.334;20.890;2023-01-04T07:20:55;-0.30;99.90
19359;DHT22;9815;52.334;20.890;2023-01-04T07:23:23;-0.30;99.90
19359;DHT22;9815;52.334;20.890;2023-01-04T07:25:51;-0.30;99.90
19359;DHT22;9815;52.334;20.890;2023-01-04T07:28:19;-0.30;99.90
19359;DHT22;9815;52.334;20.890;2023-01-04T07:31:06;-0.20;99.90
19359;DHT22;9815;52.334;20.890;2023-01-04T07:33:34;-0.20;99.90
19359;DHT22;9815;52.334;20.890;2023-01-04T07:36:04;-0.20;99.90
19359;DHT22;9815;52.334;20.890;2023-01-04T07:38:32;-0.10;99.90
19359;DHT22;9815;52.334;20.890;2023-01-04T07:41:00;0.00;99.90
19359;DHT22;9815;52.334;20.890;2023-01-04T07:43:28;0.00;99.90
19359;DHT22;9815;52.334;20.890;2023-01-04T07:45:56;0.10;99.90
19359;DHT22;9815;52.334;20.890;2023-01-04T07:48:26;0.20;99.90
19359;DHT22;9815;52.334;20.890;2023-01-04T07:50:55;0.20;99.90
19359;DHT22;9815;52.334;20.890;2023-01-04T07:53:23;0.30;99.90
19359;DHT22;9815;52.334;20.890;2023-01-04T07:55:54;0.30;99.90
19359;DHT22;9815;52.334;20.890;2023-01-04T07:58:23;0.40;99.90
19359;DHT22;9815;52.334;20.890;2023-01-04T08:00:51;0.40;99.90
19359;DHT22;9815;52.334;20.890;2023-01-04T08:03:19;0.50;99.90
19359;DHT22;9815;52.334;20.890;2023-01-04T08:05:48;0.50;99.90
19359;DHT22;9815;52.334;20.890;2023-01-04T08:08:16;0.60;99.90
19359;DHT22;9815;52.334;20.890;2023-01-04T08:10:44;0.60;99.90
19359;DHT22;9815;52.334;20.890;2023-01-04T08:13:12;0.70;99.90
19359;DHT22;9815;52.334;20.890;2023-01-04T08:15:40;0.80;99.90
19359;DHT22;9815;52.334;20.890;2023-01-04T08:18:09;0.90;99.90
19359;DHT22;9815;52.334;20.890;2023-01-04T08:20:37;1.00;99.90
19359;DHT22;9815;52.334;20.890;2023-01-04T08:23:06;1.10;99.90
19359;DHT22;9815;52.334;20.890;2023-01-04T08:25:34;1.20;99.90
19359;DHT22;9815;52.334;20.890;2023-01-04T08:28:02;1.20;99.90
19359;DHT22;9815;52.334;20.890;2023-01-04T08:30:30;1.30;99.90
19359;DHT22;9815;52.334;20.890;2023-01-04T08:32:58;1.40;99.90
19359;DHT22;9815;52.334;20.890;2023-01-04T08:35:26;1.40;99.90
19359;DHT22;9815;52.334;20.890;2023-01-04T08:37:54;1.50;99.90
19359;DHT22;9815;52.334;20.890;2023-01-04T08:40:43;1.60;99.90
19359;DHT22;9815;52.334;20.890;2023-01-04T08:43:27;1.60;99.90
19359;DHT22;9815;52.334;20.890;2023-01-04T08:45:55;1.70;99.90
19359;DHT22;9815;52.334;20.890;2023-01-04T08:48:23;1.80;99.90
19359;DHT22;9815;52.334;20.890;2023-01-04T08:50:51;1.90;99.90
19359;DHT22;9815;52.334;20.890;2023-01-04T08:53:19;2.00;99.90
19359;DHT22;9815;52.334;20.890;2023-01-04T08:55:52;2.20;99.90
19359;DHT22;9815;52.334;20.890;2023-01-04T08:58:21;2.30;99.90
19359;DHT22;9815;52.334;20.890;2023-01-04T09:00:49;2.40;99.90
19359;DHT22;9815;52.334;20.890;2023-01-04T09:03:17;2.60;99.90
19359;DHT22;9815;52.334;20.890;2023-01-04T09:05:45;2.70;99.90
19359;DHT22;9815;52.334;20.890;2023-01-04T09:08:13;2.90;99.90
19359;DHT22;9815;52.334;20.890;2023-01-04T09:10:41;3.10;99.90
19359;DHT22;9815;52.334;20.890;2023-01-04T09:13:11;3.30;99.90
19359;DHT22;9815;52.334;20.890;2023-01-04T09:15:39;3.40;99.90
19359;DHT22;9815;52.334;20.890;2023-01-04T09:18:07;3.50;99.90
19359;DHT22;9815;52.334;20.890;2023-01-04T09:20:57;3.50;99.90
19359;DHT22;9815;52.334;20.890;2023-01-04T09:23:27;3.60;99.90
19359;DHT22;9815;52.334;20.890;2023-01-04T09:25:56;3.60;99.90
19359;DHT22;9815;52.334;20.890;2023-01-04T09:28:25;3.60;99.90
19359;DHT22;9815;52.334;20.890;2023-01-04T09:30:53;3.70;99.90
19359;DHT22;9815;52.334;20.890;2023-01-04T09:33:21;3.70;99.90
19359;DHT22;9815;52.334;20.890;2023-01-04T09:36:12;3.70;99.90
19359;DHT22;9815;52.334;20.890;2023-01-04T09:38:41;3.80;99.90
19359;DHT22;9815;52.334;20.890;2023-01-04T09:41:16;3.80;99.90
19359;DHT22;9815;52.334;20.890;2023-01-04T09:43:49;3.80;99.90
19359;DHT22;9815;52.334;20.890;2023-01-04T09:46:23;3.90;99.90
19359;DHT22;9815;52.334;20.890;2023-01-04T09:48:57;4.00;99.90
19359;DHT22;9815;52.334;20.890;2023-01-04T09:51:33;4.20;99.90
19359;DHT22;9815;52.334;20.890;2023-01-04T09:54:07;4.40;99.90
19359;DHT22;9815;52.334;20.890;2023-01-04T09:56:48;4.50;99.90
19359;DHT22;9815;52.334;20.890;2023-01-04T09:59:22;4.40;99.90
19359;DHT22;9815;52.334;20.890;2023-01-04T10:01:56;4.40;99.90
19359;DHT22;9815;52.334;20.890;2023-01-04T10:04:30;4.30;99.90
19359;DHT22;9815;52.334;20.890;2023-01-04T10:07:03;4.30;99.90
19359;DHT22;9815;52.334;20.890;2023-01-04T10:09:31;4.30;99.90
19359;DHT22;9815;52.334;20.890;2023-01-04T10:12:10;4.30;99.90
19359;DHT22;9815;52.334;20.890;2023-01-04T10:14:54;4.30;99.90
19359;DHT22;9815;52.334;20.890;2023-01-04T10:17:41;4.50;99.90
19359;DHT22;9815;52.334;20.890;2023-01-04T10:21:00;4.50;99.90
19359;DHT22;9815;52.334;20.890;2023-01-04T10:24:01;4.70;99.90
19359;DHT22;9815;52.334;20.890;2023-01-04T10:26:35;4.80;99.90
19359;DHT22;9815;52.334;20.890;2023-01-04T10:29:22;4.80;99.90
19359;DHT22;9815;52.334;20.890;2023-01-04T10:31:57;4.90;99.90
19359;DHT22;9815;52.334;20.890;2023-01-04T10:34:30;4.90;99.90
19359;DHT22;9815;52.334;20.890;2023-01-04T10:37:03;5.00;99.90
19359;DHT22;9815;52.334;20.890;2023-01-04T10:39:32;5.00;99.90
19359;DHT22;9815;52.334;20.890;2023-01-04T10:42:11;5.10;99.90
19359;DHT22;9815;52.334;20.890;2023-01-04T10:44:46;5.20;99.90
19359;DHT22;9815;52.334;20.890;2023-01-04T10:47:27;5.30;99.90
19359;DHT22;9815;52.334;20.890;2023-01-04T10:49:58;5.30;99.90
19359;DHT22;9815;52.334;20.890;2023-01-04T10:52:32;5.40;99.90
19359;DHT22;9815;52.334;20.890;2023-01-04T10:55:07;5.50;99.90
19359;DHT22;9815;52.334;20.890;2023-01-04T10:57:41;5.60;99.90
19359;DHT22;9815;52.334;20.890;2023-01-04T11:00:16;5.60;99.90
19359;DHT22;9815;52.334;20.890;2023-01-04T11:02:50;5.70;99.90
19359;DHT22;9815;52.334;20.890;2023-01-04T11:05:25;5.70;99.90
19359;DHT22;9815;52.334;20.890;2023-01-04T11:07:58;5.80;99.90
19359;DHT22;9815;52.334;20.890;2023-01-04T11:10:30;5.80;99.90
19359;DHT22;9815;52.334;20.890;2023-01-04T11:13:01;5.90;99.90
19359;DHT22;9815;52.334;20.890;2023-01-04T11:15:29;5.90;99.90
19359;DHT22;9815;52.334;20.890;2023-01-04T11:18:01;6.00;99.90
19359;DHT22;9815;52.334;20.890;2023-01-04T11:20:30;6.00;99.90
19359;DHT22;9815;52.334;20.890;2023-01-04T11:23:06;6.10;99.90
19359;DHT22;9815;52.334;20.890;2023-01-04T11:25:39;6.10;99.90
19359;DHT22;9815;52.334;20.890;2023-01-04T11:28:14;6.20;99.90
19359;DHT22;9815;52.334;20.890;2023-01-04T11:30:53;6.10;99.90
19359;DHT22;9815;52.334;20.890;2023-01-04T11:33:26;6.10;99.90
19359;DHT22;9815;52.334;20.890;2023-01-04T11:35:55;6.10;99.90
19359;DHT22;9815;52.334;20.890;2023-01-04T11:38:26;6.00;99.90
19359;DHT22;9815;52.334;20.890;2023-01-04T11:40:57;5.90;99.90
19359;DHT22;9815;52.334;20.890;2023-01-04T11:43:27;5.90;99.90
19359;DHT22;9815;52.334;20.890;2023-01-04T11:46:01;5.90;99.90
19359;DHT22;9815;52.334;20.890;2023-01-04T11:48:34;5.90;99.90
19359;DHT22;9815;52.334;20.890;2023-01-04T11:51:03;5.80;99.90
19359;DHT22;9815;52.334;20.890;2023-01-04T11:53:34;5.80;99.90
19359;DHT22;9815;52.334;20.890;2023-01-04T11:56:15;5.80;99.90
19359;DHT22;9815;52.334;20.890;2023-01-04T11:59:10;5.70;99.90
19359;DHT22;9815;52.334;20.890;2023-01-04T12:01:43;5.70;99.90
19359;DHT22;9815;52.334;20.890;2023-01-04T12:04:15;5.60;99.90
19359;DHT22;9815;52.334;20.890;2023-01-04T12:06:49;5.50;99.90
19359;DHT22;9815;52.334;20.890;2023-01-04T12:09:19;5.50;99.90
19359;DHT22;9815;52.334;20.890;2023-01-04T12:11:48;5.50;99.90
19359;DHT22;9815;52.334;20.890;2023-01-04T12:14:22;5.50;99.90
19359;DHT22;9815;52.334;20.890;2023-01-04T12:16:58;5.50;99.90
19359;DHT22;9815;52.334;20.890;2023-01-04T12:19:30;5.50;99.90
19359;DHT22;9815;52.334;20.890;2023-01-04T12:22:00;5.60;99.90
19359;DHT22;9815;52.334;20.890;2023-01-04T12:24:31;5.60;99.90
19359;DHT22;9815;52.334;20.890;2023-01-04T12:27:00;5.60;99.90
19359;DHT22;9815;52.334;20.890;2023-01-04T12:29:57;5.70;99.90
19359;DHT22;9815;52.334;20.890;2023-01-04T12:32:45;5.70;99.90
19359;DHT22;9815;52.334;20.890;2023-01-04T12:39:11;5.80;99.90
19359;DHT22;9815;52.334;20.890;2023-01-04T12:42:16;5.80;99.90
19359;DHT22;9815;52.334;20.890;2023-01-04T12:45:21;5.70;99.90
19359;DHT22;9815;52.334;20.890;2023-01-04T12:47:50;5.70;99.90
19359;DHT22;9815;52.334;20.890;2023-01-04T12:54:22;5.60;99.90
19359;DHT22;9815;52.334;20.890;2023-01-04T12:57:19;5.50;99.90
19359;DHT22;9815;52.334;20.890;2023-01-04T12:59:56;5.50;99.90
19359;DHT22;9815;52.334;20.890;2023-01-04T13:02:26;5.50;99.90
19359;DHT22;9815;52.334;20.890;2023-01-04T13:04:55;5.50;99.90
19359;DHT22;9815;52.334;20.890;2023-01-04T13:07:46;5.50;99.90
19359;DHT22;9815;52.334;20.890;2023-01-04T13:10:28;5.50;99.90
19359;DHT22;9815;52.334;20.890;2023-01-04T13:13:06;5.50;99.90
19359;DHT22;9815;52.334;20.890;2023-01-04T13:15:50;5.50;99.90
19359;DHT22;9815;52.334;20.890;2023-01-04T13:18:36;5.50;99.90
19359;DHT22;9815;52.334;20.890;2023-01-04T13:21:11;5.50;99.90
19359;DHT22;9815;52.334;20.890;2023-01-04T13:23:45;5.50;99.90
19359;DHT22;9815;52.334;20.890;2023-01-04T13:26:38;5.50;99.90
19359;DHT22;9815;52.334;20.890;2023-01-04T13:29:11;5.40;99.90
19359;DHT22;9815;52.334;20.890;2023-01-04T13:31:51;5.50;99.90
19359;DHT22;9815;52.334;20.890;2023-01-04T13:34:23;5.50;99.90
19359;DHT22;9815;52.334;20.890;2023-01-04T13:36:53;5.50;99.90
19359;DHT22;9815;52.334;20.890;2023-01-04T13:39:23;5.50;99.90
19359;DHT22;9815;52.334;20.890;2023-01-04T13:41:52;5.50;99.90
19359;DHT22;9815;52.334;20.890;2023-01-04T13:44:29;5.50;99.90
19359;DHT22;9815;52.334;20.890;2023-01-04T13:47:21;5.40;99.90
19359;DHT22;9815;52.334;20.890;2023-01-04T13:49:49;5.40;99.90
19359;DHT22;9815;52.334;20.890;2023-01-04T13:52:21;5.40;99.90
19359;DHT22;9815;52.334;20.890;2023-01-04T13:55:11;5.40;99.90
19359;DHT22;9815;52.334;20.890;2023-01-04T13:57:51;5.50;99.90
19359;DHT22;9815;52.334;20.890;2023-01-04T14:00:19;5.50;99.90
19359;DHT22;9815;52.334;20.890;2023-01-04T14:03:05;5.50;99.90
19359;DHT22;9815;52.334;20.890;2023-01-04T14:05:34;5.50;99.90
19359;DHT22;9815;52.334;20.890;2023-01-04T14:08:08;5.50;99.90
19359;DHT22;9815;52.334;20.890;2023-01-04T14:10:37;5.50;99.90
19359;DHT22;9815;52.334;20.890;2023-01-04T14:13:15;5.50;99.90
19359;DHT22;9815;52.334;20.890;2023-01-04T14:15:43;5.50;99.90
19359;DHT22;9815;52.334;20.890;2023-01-04T14:18:26;5.60;99.90
19359;DHT22;9815;52.334;20.890;2023-01-04T14:20:54;5.60;99.90
19359;DHT22;9815;52.334;20.890;2023-01-04T14:23:27;5.70;99.90
19359;DHT22;9815;52.334;20.890;2023-01-04T14:25:55;5.70;99.90
19359;DHT22;9815;52.334;20.890;2023-01-04T14:28:33;5.80;99.90
19359;DHT22;9815;52.334;20.890;2023-01-04T14:31:20;5.80;99.90
19359;DHT22;9815;52.334;20.890;2023-01-04T14:33:51;5.80;99.90
19359;DHT22;9815;52.334;20.890;2023-01-04T14:36:22;5.80;99.90
19359;DHT22;9815;52.334;20.890;2023-01-04T14:41:52;5.90;99.90
19359;DHT22;9815;52.334;20.890;2023-01-04T14:44:22;5.90;99.90
19359;DHT22;9815;52.334;20.890;2023-01-04T14:46:52;5.90;99.90
19359;DHT22;9815;52.334;20.890;2023-01-04T14:49:21;5.90;99.90
19359;DHT22;9815;52.334;20.890;2023-01-04T14:51:53;5.80;99.90
19359;DHT22;9815;52.334;20.890;2023-01-04T14:54:24;5.80;99.90
19359;DHT22;9815;52.334;20.890;2023-01-04T14:56:53;5.70;99.90
19359;DHT22;9815;52.334;20.890;2023-01-04T14:59:23;5.50;99.90
19359;DHT22;9815;52.334;20.890;2023-01-04T15:01:53;5.40;99.90
19359;DHT22;9815;52.334;20.890;2023-01-04T15:04:22;5.40;99.90
19359;DHT22;9815;52.334;20.890;2023-01-04T15:06:52;5.30;99.90
19359;DHT22;9815;52.334;20.890;2023-01-04T15:09:20;5.30;99.90
19359;DHT22;9815;52.334;20.890;2023-01-04T15:11:48;5.20;99.90
19359;DHT22;9815;52.334;20.890;2023-01-04T15:14:16;5.20;99.90
19359;DHT22;9815;52.334;20.890;2023-01-04T15:16:46;5.20;99.90
19359;DHT22;9815;52.334;20.890;2023-01-04T15:19:14;5.20;99.90
19359;DHT22;9815;52.334;20.890;2023-01-04T15:21:42;5.20;99.90
19359;DHT22;9815;52.334;20.890;2023-01-04T15:24:10;5.20;99.90
19359;DHT22;9815;52.334;20.890;2023-01-04T15:26:38;5.20;99.90
19359;DHT22;9815;52.334;20.890;2023-01-04T15:29:06;5.20;99.90
19359;DHT22;9815;52.334;20.890;2023-01-04T15:31:35;5.20;99.90
19359;DHT22;9815;52.334;20.890;2023-01-04T15:34:08;5.30;99.90
19359;DHT22;9815;52.334;20.890;2023-01-04T15:36:36;5.40;99.90
19359;DHT22;9815;52.334;20.890;2023-01-04T15:39:08;5.40;99.90
19359;DHT22;9815;52.334;20.890;2023-01-04T15:41:37;5.40;99.90
19359;DHT22;9815;52.334;20.890;2023-01-04T15:44:28;5.40;99.90
19359;DHT22;9815;52.334;20.890;2023-01-04T15:46:56;5.50;99.90
19359;DHT22;9815;52.334;20.890;2023-01-04T15:49:27;5.60;99.90
19359;DHT22;9815;52.334;20.890;2023-01-04T15:51:56;5.60;99.90
19359;DHT22;9815;52.334;20.890;2023-01-04T15:54:24;5.70;99.90
19359;DHT22;9815;52.334;20.890;2023-01-04T15:56:52;5.70;99.90
19359;DHT22;9815;52.334;20.890;2023-01-04T15:59:21;5.70;99.90
19359;DHT22;9815;52.334;20.890;2023-01-04T16:01:49;5.80;99.90
19359;DHT22;9815;52.334;20.890;2023-01-04T16:04:17;5.80;99.90
19359;DHT22;9815;52.334;20.890;2023-01-04T16:06:47;5.80;99.90
19359;DHT22;9815;52.334;20.890;2023-01-04T16:09:15;5.70;99.90
19359;DHT22;9815;52.334;20.890;2023-01-04T16:11:43;5.70;99.90
19359;DHT22;9815;52.334;20.890;2023-01-04T16:14:25;5.70;99.90
19359;DHT22;9815;52.334;20.890;2023-01-04T16:16:53;5.60;99.90
19359;DHT22;9815;52.334;20.890;2023-01-04T16:19:21;5.60;99.90
19359;DHT22;9815;52.334;20.890;2023-01-04T16:21:51;5.50;99.90
19359;DHT22;9815;52.334;20.890;2023-01-04T16:24:19;5.50;99.90
19359;DHT22;9815;52.334;20.890;2023-01-04T16:27:07;5.40;99.90
19359;DHT22;9815;52.334;20.890;2023-01-04T16:29:36;5.40;99.90
19359;DHT22;9815;52.334;20.890;2023-01-04T16:32:04;5.40;99.90
19359;DHT22;9815;52.334;20.890;2023-01-04T16:34:32;5.30;99.90
19359;DHT22;9815;52.334;20.890;2023-01-04T16:37:02;5.30;99.90
19359;DHT22;9815;52.334;20.890;2023-01-04T16:39:30;5.40;99.90